createdAt,value
2019-02-19T00:00:09.595Z,4.30
2019-02-19T00:02:37.757Z,4.20
2019-02-19T00:05:05.637Z,4.50
2019-02-19T00:07:33.032Z,4.33
2019-02-19T00:10:00.829Z,4.43
2019-02-19T00:12:28.921Z,4.70
2019-02-19T00:14:56.684Z,4.50
2019-02-19T00:17:24.863Z,5.30
2019-02-19T00:19:52.511Z,5.20
2019-02-19T00:22:20.550Z,4.13
2019-02-19T00:24:48.382Z,4.20
2019-02-19T00:27:16.246Z,4.67
2019-02-19T00:29:43.620Z,4.43
2019-02-19T00:32:11.655Z,3.73
2019-02-19T00:34:39.227Z,4.30
2019-02-19T00:37:06.899Z,4.50
2019-02-19T00:39:34.694Z,4.27
2019-02-19T00:42:02.632Z,4.17
2019-02-19T00:44:30.384Z,3.97
2019-02-19T00:46:57.859Z,4.27
2019-02-19T00:49:44.134Z,4.10
2019-02-19T00:52:11.935Z,3.73
2019-02-19T00:54:39.362Z,4.63
2019-02-19T00:57:07.770Z,4.63
2019-02-19T00:59:35.750Z,4.60
2019-02-19T01:02:03.068Z,4.93
2019-02-19T01:04:30.740Z,4.90
2019-02-19T01:06:58.247Z,5.23
2019-02-19T01:09:25.880Z,4.50
2019-02-19T01:11:53.790Z,4.53
2019-02-19T01:14:21.697Z,4.20
2019-02-19T01:16:49.887Z,5.20
2019-02-19T01:19:18.059Z,5.23
2019-02-19T01:21:45.656Z,5.10
2019-02-19T01:24:13.075Z,4.73
2019-02-19T01:26:40.320Z,4.97
2019-02-19T01:29:08.170Z,5.00
2019-02-19T01:31:35.855Z,5.00
2019-02-19T01:34:03.278Z,6.47
2019-02-19T01:36:30.642Z,5.70
2019-02-19T01:38:58.275Z,6.87
2019-02-19T01:41:26.078Z,6.63
2019-02-19T01:43:53.637Z,6.97
2019-02-19T01:46:21.413Z,7.60
2019-02-19T01:48:49.506Z,7.10
2019-02-19T01:51:17.149Z,6.90
2019-02-19T01:53:44.946Z,7.47
2019-02-19T01:56:12.844Z,7.60
2019-02-19T01:58:40.365Z,9.43
2019-02-19T02:01:07.970Z,8.30
2019-02-19T02:03:38.268Z,9.80
2019-02-19T02:06:06.226Z,10.20
2019-02-19T02:08:34.161Z,8.83
2019-02-19T02:11:01.716Z,8.97
2019-02-19T02:13:29.471Z,8.93
2019-02-19T02:15:57.043Z,10.03
2019-02-19T02:18:24.617Z,11.20
2019-02-19T02:20:53.029Z,10.93
2019-02-19T02:23:21.057Z,12.00
2019-02-19T02:25:48.486Z,13.10
2019-02-19T02:28:19.137Z,12.87
2019-02-19T02:30:46.548Z,11.40
2019-02-19T02:33:15.118Z,13.10
2019-02-19T02:35:43.047Z,11.40
2019-02-19T02:38:10.846Z,11.30
2019-02-19T02:40:38.528Z,12.63
2019-02-19T02:43:05.995Z,11.23
2019-02-19T02:45:34.143Z,13.37
2019-02-19T02:48:02.397Z,11.50
2019-02-19T02:50:30.679Z,11.90
2019-02-19T02:52:59.036Z,10.67
2019-02-19T02:55:29.430Z,13.53
2019-02-19T02:57:57.232Z,12.57
2019-02-19T03:00:24.769Z,13.77
2019-02-19T03:02:52.086Z,12.20
2019-02-19T03:05:19.836Z,12.37
2019-02-19T03:07:50.616Z,13.00
2019-02-19T03:10:18.287Z,11.27
2019-02-19T03:12:46.251Z,12.40
2019-02-19T03:15:14.521Z,11.97
2019-02-19T03:17:42.305Z,11.73
2019-02-19T03:20:09.967Z,12.83
2019-02-19T03:22:37.200Z,13.40
2019-02-19T03:25:05.219Z,12.40
2019-02-19T03:27:32.830Z,12.57
2019-02-19T03:30:00.728Z,12.20
2019-02-19T03:32:29.109Z,10.93
2019-02-19T03:34:56.838Z,11.00
2019-02-19T03:37:25.315Z,10.40
2019-02-19T03:39:52.706Z,10.63
2019-02-19T03:42:22.627Z,11.17
2019-02-19T03:44:51.009Z,11.67
2019-02-19T03:47:19.569Z,12.20
2019-02-19T03:49:48.174Z,13.07
2019-02-19T03:52:17.223Z,12.50
2019-02-19T03:54:45.287Z,12.93
2019-02-19T03:57:12.819Z,12.60
2019-02-19T03:59:40.427Z,12.27
2019-02-19T04:02:08.820Z,12.50
2019-02-19T04:04:36.321Z,12.63
2019-02-19T04:07:04.547Z,11.70
2019-02-19T04:09:32.436Z,12.90
2019-02-19T04:12:00.520Z,11.90
2019-02-19T04:14:28.315Z,12.00
2019-02-19T04:16:57.121Z,11.83
2019-02-19T04:19:24.799Z,12.60
2019-02-19T04:21:52.546Z,12.00
2019-02-19T04:24:20.295Z,13.10
2019-02-19T04:26:48.001Z,14.30
2019-02-19T04:29:15.862Z,13.33
2019-02-19T04:31:43.765Z,14.77
2019-02-19T04:34:12.295Z,14.90
2019-02-19T04:36:40.190Z,14.23
2019-02-19T04:39:08.168Z,13.30
2019-02-19T04:41:35.648Z,13.80
2019-02-19T04:44:06.279Z,14.60
2019-02-19T04:46:34.413Z,14.63
2019-02-19T04:49:02.288Z,14.27
2019-02-19T04:51:30.450Z,13.90
2019-02-19T04:53:57.919Z,15.00
2019-02-19T04:56:26.295Z,13.70
2019-02-19T04:58:53.834Z,15.00
2019-02-19T05:01:21.711Z,14.40
2019-02-19T05:03:49.429Z,14.50
2019-02-19T05:06:17.051Z,15.80
2019-02-19T05:08:45.129Z,14.37
2019-02-19T05:11:13.073Z,14.47
2019-02-19T05:13:40.977Z,17.00
2019-02-19T05:16:09.057Z,15.73
2019-02-19T05:18:36.971Z,14.67
2019-02-19T05:21:04.993Z,15.70
2019-02-19T05:23:33.215Z,16.37
2019-02-19T05:26:00.893Z,16.07
2019-02-19T05:28:28.421Z,15.33
2019-02-19T05:30:56.520Z,15.40
2019-02-19T05:33:24.399Z,13.70
2019-02-19T05:35:51.946Z,16.33
2019-02-19T05:38:19.343Z,16.50
2019-02-19T05:40:47.240Z,16.13
2019-02-19T05:43:14.797Z,16.70
2019-02-19T05:45:42.915Z,15.53
2019-02-19T05:48:11.175Z,15.57
2019-02-19T05:50:38.808Z,16.70
2019-02-19T05:53:07.020Z,15.57
2019-02-19T05:55:34.546Z,16.30
2019-02-19T05:58:02.121Z,15.87
2019-02-19T06:00:29.995Z,16.07
2019-02-19T06:02:57.728Z,15.40
2019-02-19T06:05:25.633Z,15.20
2019-02-19T06:07:53.559Z,15.60
2019-02-19T06:10:21.279Z,15.40
2019-02-19T06:12:48.438Z,15.37
2019-02-19T06:15:16.067Z,15.40
2019-02-19T06:17:43.627Z,15.27
2019-02-19T06:20:11.443Z,14.87
2019-02-19T06:22:39.561Z,14.50
2019-02-19T06:25:07.876Z,13.30
2019-02-19T06:27:36.552Z,13.17
2019-02-19T06:30:07.117Z,13.10
2019-02-19T06:32:34.822Z,33.97
2019-02-19T06:35:02.796Z,27.17
2019-02-19T06:37:30.667Z,22.13
2019-02-19T06:39:59.160Z,16.23
2019-02-19T06:42:27.308Z,13.97
2019-02-19T06:44:55.282Z,13.00
2019-02-19T06:47:24.280Z,13.10
2019-02-19T06:49:53.443Z,12.97
2019-02-19T06:52:21.293Z,13.30
2019-02-19T06:54:49.517Z,12.17
2019-02-19T06:57:17.404Z,12.87
2019-02-19T06:59:45.151Z,11.93
2019-02-19T07:02:35.426Z,11.10
2019-02-19T07:05:06.697Z,10.70
2019-02-19T07:07:34.858Z,11.23
2019-02-19T07:10:02.734Z,10.27
2019-02-19T07:12:30.763Z,49.90
2019-02-19T07:14:59.483Z,49.33
2019-02-19T07:17:27.246Z,23.17
2019-02-19T07:19:55.106Z,13.70
2019-02-19T07:22:23.960Z,13.60
2019-02-19T07:24:51.765Z,11.33
2019-02-19T07:27:20.842Z,10.90
2019-02-19T07:29:48.939Z,10.87
2019-02-19T07:32:21.162Z,10.60
2019-02-19T07:34:48.893Z,10.40
2019-02-19T07:37:17.222Z,12.03
2019-02-19T07:39:44.822Z,11.00
2019-02-19T07:42:13.385Z,11.57
2019-02-19T07:44:42.103Z,10.93
2019-02-19T07:47:10.043Z,13.10
2019-02-19T07:49:38.118Z,11.53
2019-02-19T07:52:07.527Z,11.10
2019-02-19T07:54:35.766Z,24.63
2019-02-19T07:57:04.237Z,19.67
2019-02-19T07:59:31.993Z,14.73
2019-02-19T08:02:00.478Z,17.40
2019-02-19T08:04:28.143Z,12.40
2019-02-19T08:06:55.993Z,11.70
2019-02-19T08:09:24.429Z,11.03
2019-02-19T08:11:52.604Z,10.50
2019-02-19T08:14:20.561Z,12.17
2019-02-19T08:16:49.205Z,10.30
2019-02-19T08:19:17.313Z,12.63
2019-02-19T08:21:45.500Z,12.50
2019-02-19T08:24:14.525Z,11.50
2019-02-19T08:26:42.822Z,10.90
2019-02-19T08:29:14.028Z,12.50
2019-02-19T08:31:41.451Z,11.00
2019-02-19T08:34:09.121Z,11.97
2019-02-19T08:36:36.805Z,11.20
2019-02-19T08:39:05.042Z,23.13
2019-02-19T08:41:33.161Z,29.70
2019-02-19T08:44:01.001Z,16.63
2019-02-19T08:46:29.113Z,12.73
2019-02-19T08:48:57.467Z,10.70
2019-02-19T08:51:26.702Z,10.00
2019-02-19T08:53:54.570Z,10.80
2019-02-19T08:56:22.389Z,9.47
2019-02-19T08:58:51.123Z,11.40
2019-02-19T09:01:19.777Z,9.63
2019-02-19T09:03:47.587Z,8.83
2019-02-19T09:06:15.836Z,9.03
2019-02-19T09:08:43.787Z,8.23
2019-02-19T09:11:12.067Z,7.20
2019-02-19T09:13:40.234Z,7.10
2019-02-19T09:16:08.194Z,6.90
2019-02-19T09:18:36.493Z,7.47
2019-02-19T09:21:04.743Z,8.33
2019-02-19T09:23:32.517Z,7.70
2019-02-19T09:26:00.480Z,6.70
2019-02-19T09:28:28.649Z,6.80
2019-02-19T09:30:56.790Z,7.30
2019-02-19T09:33:24.808Z,7.03
2019-02-19T09:35:52.763Z,7.13
2019-02-19T09:38:21.039Z,6.23
2019-02-19T09:40:49.664Z,7.10
2019-02-19T09:43:18.524Z,6.97
2019-02-19T09:45:46.562Z,7.20
2019-02-19T09:48:14.475Z,6.80
2019-02-19T09:50:42.123Z,5.97
2019-02-19T09:53:10.131Z,6.10
2019-02-19T09:55:38.079Z,6.50
2019-02-19T09:58:05.668Z,6.67
2019-02-19T10:00:33.279Z,6.03
2019-02-19T10:03:00.908Z,6.80
2019-02-19T10:05:29.157Z,6.40
2019-02-19T10:08:00.327Z,6.13
2019-02-19T10:10:28.641Z,6.67
2019-02-19T10:12:56.440Z,5.30
2019-02-19T10:15:24.619Z,6.00
2019-02-19T10:17:52.545Z,5.90
2019-02-19T10:20:20.614Z,5.80
2019-02-19T10:22:48.690Z,5.40
2019-02-19T10:25:16.573Z,7.10
2019-02-19T10:27:44.841Z,6.27
2019-02-19T10:30:13.513Z,6.97
2019-02-19T10:32:41.673Z,6.30
2019-02-19T10:35:09.858Z,6.07
2019-02-19T10:37:37.352Z,6.67
2019-02-19T10:40:10.185Z,5.97
2019-02-19T10:42:38.061Z,5.50
2019-02-19T10:45:08.503Z,6.10
2019-02-19T10:47:36.253Z,6.00
2019-02-19T10:50:04.710Z,5.63
2019-02-19T10:52:32.801Z,5.47
2019-02-19T10:55:00.521Z,5.67
2019-02-19T10:57:28.720Z,5.10
2019-02-19T10:59:56.374Z,4.47
2019-02-19T11:02:24.496Z,5.50
2019-02-19T11:04:52.153Z,4.90
2019-02-19T11:07:19.840Z,4.67
2019-02-19T11:09:47.855Z,4.00
2019-02-19T11:12:15.895Z,11.30
2019-02-19T11:14:44.112Z,20.10
2019-02-19T11:17:12.225Z,8.90
2019-02-19T11:19:41.619Z,5.80
2019-02-19T11:22:09.891Z,4.50
2019-02-19T11:24:38.198Z,4.30
2019-02-19T11:27:06.156Z,3.37
2019-02-19T11:29:34.023Z,4.90
2019-02-19T11:32:01.965Z,4.57
2019-02-19T11:34:29.772Z,4.03
2019-02-19T11:36:57.517Z,3.80
2019-02-19T11:39:25.827Z,4.43
2019-02-19T11:41:54.198Z,3.00
2019-02-19T11:44:21.974Z,3.97
2019-02-19T11:46:52.117Z,4.00
2019-02-19T11:49:19.982Z,4.10
2019-02-19T11:51:47.762Z,3.63
2019-02-19T11:54:16.234Z,13.10
2019-02-19T11:56:44.016Z,17.00
2019-02-19T11:59:13.168Z,6.57
2019-02-19T12:01:41.230Z,4.63
2019-02-19T12:04:09.536Z,4.07
2019-02-19T12:06:42.653Z,2.87
2019-02-19T12:09:10.601Z,3.50
2019-02-19T12:11:38.068Z,3.53
2019-02-19T12:14:05.787Z,3.60
2019-02-19T12:16:33.557Z,3.33
2019-02-19T12:19:01.709Z,3.50
2019-02-19T12:21:29.967Z,3.33
2019-02-19T12:23:57.906Z,3.03
2019-02-19T12:26:25.758Z,3.60
2019-02-19T12:28:53.762Z,3.17
2019-02-19T12:31:21.435Z,3.20
2019-02-19T12:33:49.218Z,3.10
2019-02-19T12:36:17.364Z,4.03
2019-02-19T12:38:46.024Z,3.30
2019-02-19T12:41:14.297Z,3.20
2019-02-19T12:43:42.057Z,2.93
2019-02-19T12:46:10.581Z,3.10
2019-02-19T12:48:39.951Z,3.77
2019-02-19T12:51:08.069Z,3.10
2019-02-19T12:53:36.567Z,3.10
2019-02-19T12:56:05.732Z,2.87
2019-02-19T12:58:33.583Z,3.13
2019-02-19T13:01:01.129Z,3.10
2019-02-19T13:03:28.894Z,2.60
2019-02-19T13:05:57.203Z,2.43
2019-02-19T13:08:24.834Z,3.13
2019-02-19T13:10:52.697Z,3.00
2019-02-19T13:13:20.487Z,2.97
2019-02-19T13:15:48.834Z,2.07
2019-02-19T13:18:16.594Z,2.70
2019-02-19T13:20:44.471Z,3.10
2019-02-19T13:23:12.184Z,2.83
2019-02-19T13:25:40.096Z,3.30
2019-02-19T13:28:08.082Z,7.67
2019-02-19T13:30:36.690Z,10.13
2019-02-19T13:33:05.193Z,4.40
2019-02-19T13:35:33.617Z,3.10
2019-02-19T13:38:01.750Z,2.33
2019-02-19T13:40:30.057Z,2.33
2019-02-19T13:42:58.243Z,2.30
2019-02-19T13:45:27.764Z,2.50
2019-02-19T13:47:56.159Z,2.87
2019-02-19T13:50:23.831Z,2.17
2019-02-19T13:53:05.215Z,2.57
2019-02-19T13:55:36.513Z,2.13
2019-02-19T13:58:04.884Z,2.97
2019-02-19T14:00:34.032Z,2.37
2019-02-19T14:03:02.704Z,2.30
2019-02-19T14:05:31.129Z,2.50
2019-02-19T14:08:00.684Z,2.90
2019-02-19T14:10:29.572Z,2.50
2019-02-19T14:13:00.833Z,3.20
2019-02-19T14:15:36.653Z,2.07
2019-02-19T14:18:06.969Z,2.73
2019-02-19T14:20:55.933Z,2.63
2019-02-19T14:23:42.320Z,2.53
2019-02-19T14:26:21.598Z,2.97
2019-02-19T14:29:08.068Z,3.03
2019-02-19T14:31:53.861Z,2.90
2019-02-19T14:34:41.271Z,3.00
2019-02-19T14:37:38.768Z,2.30
2019-02-19T14:40:29.260Z,2.67
2019-02-19T14:43:28.841Z,2.17
2019-02-19T14:46:13.901Z,2.10
2019-02-19T14:49:04.099Z,3.00
2019-02-19T14:51:51.442Z,2.00
2019-02-19T14:54:37.425Z,2.40
2019-02-19T14:57:27.535Z,2.20
2019-02-19T15:00:17.899Z,2.53
2019-02-19T15:02:59.323Z,16.80
2019-02-19T15:05:58.749Z,9.60
2019-02-19T15:08:45.032Z,4.10
2019-02-19T15:11:34.960Z,2.97
2019-02-19T15:14:20.837Z,2.60
2019-02-19T15:17:08.090Z,2.30
2019-02-19T15:19:42.539Z,2.77
2019-02-19T15:22:35.312Z,3.00
2019-02-19T15:25:15.204Z,3.13
2019-02-19T15:28:02.625Z,2.67
2019-02-19T15:30:52.950Z,2.80
2019-02-19T15:33:39.733Z,1.97
2019-02-19T15:36:45.252Z,2.00
2019-02-19T15:39:32.028Z,2.40
2019-02-19T15:42:17.915Z,3.00
2019-02-19T15:45:03.668Z,2.30
2019-02-19T15:47:49.967Z,3.03
2019-02-19T15:50:35.418Z,2.67
2019-02-19T15:53:28.484Z,2.23
2019-02-19T15:56:30.806Z,2.80
2019-02-19T15:59:11.256Z,3.30
2019-02-19T16:01:57.509Z,3.20
2019-02-19T16:04:48.037Z,2.53
2019-02-19T16:07:38.560Z,8.47
2019-02-19T16:10:24.442Z,8.10
2019-02-19T16:13:17.272Z,5.03
2019-02-19T16:16:03.582Z,2.30
2019-02-19T16:18:41.054Z,2.97
2019-02-19T16:21:17.941Z,3.17
2019-02-19T16:24:02.007Z,2.90
2019-02-19T16:27:01.135Z,2.90
2019-02-19T16:29:41.439Z,2.50
2019-02-19T16:32:31.485Z,3.20
2019-02-19T16:35:30.520Z,2.63
2019-02-19T16:38:26.732Z,3.00
2019-02-19T16:41:18.174Z,3.47
2019-02-19T16:44:08.504Z,2.87
2019-02-19T16:46:54.371Z,2.43
2019-02-19T16:49:37.451Z,2.20
2019-02-19T16:52:11.390Z,2.57
2019-02-19T16:55:13.184Z,2.50
2019-02-19T16:57:52.822Z,2.27
2019-02-19T17:00:43.278Z,3.17
2019-02-19T17:03:30.111Z,2.80
2019-02-19T17:06:21.386Z,2.80
2019-02-19T17:09:05.574Z,4.40
2019-02-19T17:11:56.815Z,3.73
2019-02-19T17:14:48.995Z,2.67
2019-02-19T17:17:39.828Z,3.07
2019-02-19T17:20:38.875Z,3.00
2019-02-19T17:23:28.064Z,3.33
2019-02-19T17:26:14.197Z,3.03
2019-02-19T17:29:02.260Z,2.90
2019-02-19T17:31:35.818Z,3.17
2019-02-19T17:34:35.009Z,2.80
2019-02-19T17:37:11.792Z,2.97
2019-02-19T17:39:44.744Z,2.17
2019-02-19T17:42:41.212Z,2.50
2019-02-19T17:45:34.940Z,2.87
2019-02-19T17:48:20.758Z,2.70
2019-02-19T17:51:07.940Z,3.10
2019-02-19T17:53:58.194Z,2.13
2019-02-19T17:56:52.349Z,2.60
2019-02-19T17:59:48.627Z,3.10
2019-02-19T18:02:51.434Z,2.93
2019-02-19T18:05:26.559Z,2.50
2019-02-19T18:08:13.785Z,5.40
2019-02-19T18:11:04.967Z,7.57
2019-02-19T18:13:43.449Z,4.50
2019-02-19T18:16:19.947Z,3.90
2019-02-19T18:18:51.056Z,2.90
2019-02-19T18:21:20.007Z,3.23
2019-02-19T18:23:47.543Z,2.63
2019-02-19T18:26:15.846Z,2.97
2019-02-19T18:28:43.588Z,3.30
2019-02-19T18:31:11.721Z,3.13
2019-02-19T18:33:39.645Z,3.10
2019-02-19T18:36:07.245Z,3.20
2019-02-19T18:38:36.946Z,2.90
2019-02-19T18:41:04.732Z,3.20
2019-02-19T18:43:32.584Z,2.33
2019-02-19T18:46:00.680Z,3.20
2019-02-19T18:48:28.389Z,3.70
2019-02-19T18:50:58.628Z,3.30
2019-02-19T18:53:27.588Z,3.63
2019-02-19T18:55:55.365Z,3.27
2019-02-19T18:58:23.210Z,3.87
2019-02-19T19:00:52.162Z,3.37
2019-02-19T19:03:19.731Z,3.43
2019-02-19T19:05:47.996Z,3.70
2019-02-19T19:08:15.438Z,2.83
2019-02-19T19:10:42.975Z,3.13
2019-02-19T19:13:10.838Z,3.43
2019-02-19T19:15:38.847Z,3.33
2019-02-19T19:18:08.692Z,3.80
2019-02-19T19:20:36.870Z,3.27
2019-02-19T19:23:05.103Z,3.60
2019-02-19T19:25:32.738Z,3.07
2019-02-19T19:28:00.723Z,3.90
2019-02-19T19:30:29.167Z,3.67
2019-02-19T19:32:56.612Z,3.30
2019-02-19T19:35:24.730Z,3.53
2019-02-19T19:37:52.669Z,3.60
2019-02-19T19:40:21.017Z,3.43
2019-02-19T19:42:49.104Z,3.47
2019-02-19T19:45:16.862Z,4.00
2019-02-19T19:47:44.724Z,2.97
2019-02-19T19:50:12.548Z,2.63
2019-02-19T19:52:41.679Z,10.73
2019-02-19T19:55:09.349Z,7.30
2019-02-19T19:57:37.484Z,5.53
2019-02-19T20:00:05.486Z,4.60
2019-02-19T20:02:33.547Z,5.23
2019-02-19T20:05:01.451Z,2.70
2019-02-19T20:07:29.556Z,3.30
2019-02-19T20:09:58.011Z,2.93
2019-02-19T20:12:25.425Z,3.07
2019-02-19T20:14:53.147Z,3.60
2019-02-19T20:17:21.007Z,5.20
2019-02-19T20:19:48.549Z,2.90
2019-02-19T20:22:16.522Z,3.57
2019-02-19T20:24:44.098Z,3.50
2019-02-19T20:27:12.193Z,3.50
2019-02-19T20:29:40.142Z,3.03
2019-02-19T20:32:07.691Z,3.27
2019-02-19T20:34:35.771Z,3.23
2019-02-19T20:37:03.436Z,3.57
2019-02-19T20:39:30.921Z,4.40
2019-02-19T20:41:59.224Z,3.50
2019-02-19T20:44:27.093Z,4.00
2019-02-19T20:47:04.754Z,3.70
2019-02-19T20:49:32.990Z,4.50
2019-02-19T20:52:01.253Z,4.13
2019-02-19T20:54:29.345Z,3.50
2019-02-19T20:56:57.330Z,4.77
2019-02-19T20:59:25.327Z,3.33
2019-02-19T21:01:53.947Z,3.40
2019-02-19T21:04:24.789Z,3.23
2019-02-19T21:06:52.215Z,4.23
2019-02-19T21:09:21.197Z,3.80
2019-02-19T21:11:48.807Z,8.77
2019-02-19T21:14:16.856Z,12.50
2019-02-19T21:16:45.456Z,7.27
2019-02-19T21:19:12.937Z,5.93
2019-02-19T21:21:45.002Z,4.20
2019-02-19T21:24:11.022Z,4.93
2019-02-19T21:26:38.922Z,3.73
2019-02-19T21:29:08.422Z,3.70
2019-02-19T21:31:35.823Z,4.00
2019-02-19T21:34:04.026Z,4.13
2019-02-19T21:36:31.986Z,4.10
2019-02-19T21:39:00.122Z,3.40
2019-02-19T21:41:27.779Z,4.30
2019-02-19T21:43:55.221Z,4.57
2019-02-19T21:46:23.136Z,3.70
2019-02-19T21:48:51.024Z,4.00
2019-02-19T21:51:18.884Z,4.70
2019-02-19T21:53:47.642Z,3.67
2019-02-19T21:56:15.527Z,3.60
2019-02-19T21:58:43.724Z,4.40
2019-02-19T22:01:11.847Z,4.03
2019-02-19T22:03:39.521Z,5.37
2019-02-19T22:06:07.643Z,5.23
2019-02-19T22:08:35.798Z,4.70
2019-02-19T22:11:03.446Z,5.00
2019-02-19T22:13:31.643Z,4.23
2019-02-19T22:15:59.142Z,5.07
2019-02-19T22:18:27.055Z,5.30
2019-02-19T22:21:00.330Z,5.33
2019-02-19T22:23:28.160Z,5.37
2019-02-19T22:25:56.049Z,5.33
2019-02-19T22:28:24.221Z,5.40
2019-02-19T22:30:52.831Z,4.60
2019-02-19T22:33:20.718Z,5.50
2019-02-19T22:35:48.264Z,5.53
2019-02-19T22:38:16.334Z,5.87
2019-02-19T22:40:44.048Z,6.00
2019-02-19T22:43:12.136Z,5.77
2019-02-19T22:45:40.019Z,5.40
2019-02-19T22:48:07.963Z,5.23
2019-02-19T22:50:35.937Z,5.80
2019-02-19T22:53:06.609Z,5.10
2019-02-19T22:55:53.946Z,4.50
2019-02-19T22:58:21.970Z,4.40
2019-02-19T23:01:09.058Z,6.23
2019-02-19T23:03:38.533Z,5.60
2019-02-19T23:06:06.781Z,6.00
2019-02-19T23:08:34.675Z,5.90
2019-02-19T23:11:02.456Z,5.47
2019-02-19T23:13:30.667Z,5.17
2019-02-19T23:15:58.410Z,4.63
2019-02-19T23:18:26.162Z,4.40
2019-02-19T23:21:05.307Z,4.10
2019-02-19T23:23:33.708Z,5.30
2019-02-19T23:26:01.673Z,4.43
2019-02-19T23:28:30.056Z,4.17
2019-02-19T23:30:57.803Z,4.63
2019-02-19T23:33:25.387Z,4.90
2019-02-19T23:36:01.041Z,5.43
2019-02-19T23:38:28.964Z,4.57
2019-02-19T23:40:56.941Z,4.23
2019-02-19T23:43:24.319Z,4.57
2019-02-19T23:45:51.901Z,4.70
2019-02-19T23:48:19.748Z,5.10
2019-02-19T23:50:47.253Z,4.83
2019-02-19T23:53:15.603Z,5.00
2019-02-19T23:55:43.339Z,4.70
2019-02-19T23:58:13.760Z,4.17
